Time;durP1;ratioP1;P1;durP2;ratioP2;P2;SDS_P1;SDS_P2;PMS_P1;PMS_P2;Temp;Humidity;BMP_temperature;BMP_pressure;BME280_temperature;BME280_humidity;BME280_pressure;Samples;Min_cycle;Max_cycle;Signal;HPM_P1;HPM_P2
2022/08/23 00:02:08;;;;;;;6.20;2.30;;;20.40;99.90;;;-144.05;48.65;125687.94;5093330;28;20031;-86
2022/08/23 00:04:41;;;;;;;5.75;2.55;;;20.40;99.90;;;-144.05;49.09;125687.94;5102548;28;20368;-91
2022/08/23 00:07:12;;;;;;;4.78;2.70;;;20.30;99.90;;;-144.05;49.84;125687.94;5096226;28;20395;-89
2022/08/23 00:09:39;;;;;;;5.63;2.75;;;20.20;99.90;;;-144.05;51.15;125687.94;5096452;28;20395;-88
2022/08/23 00:12:20;;;;;;;5.93;3.33;;;20.00;99.90;;;-144.05;52.15;125687.94;5080774;28;20028;-88
2022/08/23 00:14:52;;;;;;;4.57;2.90;;;19.80;99.90;;;-144.05;53.03;125687.94;5078511;28;20310;-89
2022/08/23 00:17:19;;;;;;;5.20;2.75;;;19.60;99.90;;;-144.05;53.74;125687.94;5078479;28;20472;-89
2022/08/23 00:19:46;;;;;;;3.55;2.78;;;19.50;99.90;;;-144.05;54.46;125687.94;5077858;28;20044;-88
2022/08/23 00:22:14;;;;;;;4.35;3.05;;;19.30;99.90;;;-144.05;55.04;125687.94;5078286;28;20028;-89
2022/08/23 00:24:40;;;;;;;6.60;3.40;;;19.30;99.90;;;-144.05;55.50;125687.94;5078626;28;20024;-88
2022/08/23 00:27:14;;;;;;;4.57;2.90;;;19.10;99.90;;;-144.05;56.64;125687.94;5078128;28;20120;-90
2022/08/23 00:29:48;;;;;;;9.00;3.83;;;19.00;99.90;;;-144.05;57.28;125687.94;5078368;28;20391;-90
2022/08/23 00:32:23;;;;;;;5.30;3.30;;;18.80;99.90;;;-144.05;57.96;125687.94;5078305;28;20034;-89
2022/08/23 00:34:50;;;;;;;6.30;3.42;;;18.70;99.90;;;-144.05;58.39;125687.94;5079768;28;20512;-89
2022/08/23 00:37:18;;;;;;;5.68;3.35;;;18.60;99.90;;;-144.05;59.05;125687.94;5078946;28;20055;-88
2022/08/23 00:39:44;;;;;;;6.32;3.58;;;18.60;99.90;;;-144.05;59.45;125687.94;5078647;28;20439;-89
2022/08/23 00:48:26;;;;;;;5.07;3.22;;;18.40;99.90;;;-144.05;61.40;125687.94;5097563;28;20051;-88
2022/08/23 00:51:14;;;;;;;5.22;3.50;;;18.30;99.90;;;-144.05;61.44;125687.94;5096274;28;20031;-91
2022/08/23 00:53:56;;;;;;;3.70;2.95;;;18.30;99.90;;;-144.05;61.87;125687.94;5096372;28;20032;-91
2022/08/23 00:56:29;;;;;;;3.83;3.40;;;18.30;99.90;;;-144.05;62.01;125687.94;5079938;28;20057;-90
2022/08/23 00:58:55;;;;;;;5.13;3.25;;;18.10;99.90;;;-144.05;62.88;125687.94;5079984;28;20036;-91
2022/08/23 01:01:22;;;;;;;8.00;3.90;;;18.00;99.90;;;-144.05;63.48;125687.94;5127332;28;20070;-90
2022/08/23 01:03:57;;;;;;;3.67;3.13;;;18.00;99.90;;;-144.05;63.75;125687.94;5097320;28;20164;-89
2022/08/23 01:07:07;;;;;;;4.63;3.53;;;17.80;99.90;;;-144.05;64.76;125687.94;5099279;28;20047;-87
2022/08/23 01:09:33;;;;;;;7.10;4.15;;;17.70;99.90;;;-144.05;64.78;125687.94;5089215;28;20460;-86
2022/08/23 01:12:15;;;;;;;8.50;3.75;;;17.60;99.90;;;-144.05;65.01;125687.94;5082552;28;20040;-88
2022/08/23 01:14:56;;;;;;;4.22;3.33;;;17.50;99.90;;;-144.05;65.55;125687.94;5081787;28;20142;-86
2022/08/23 01:17:42;;;;;;;8.98;3.83;;;17.40;99.90;;;-144.05;66.11;125687.94;5080337;28;20032;-86
2022/08/23 01:20:17;;;;;;;;;;;17.30;99.90;;;-144.05;66.83;125687.94;5097673;28;20115;-85
2022/08/23 01:23:15;;;;;;;5.35;3.47;;;17.30;99.90;;;-144.05;67.19;125687.94;5080313;28;19931;-85
2022/08/23 01:25:41;;;;;;;6.72;3.78;;;17.20;99.90;;;-144.05;67.24;125687.94;5080417;28;20035;-86
2022/08/23 01:28:10;;;;;;;6.43;3.97;;;17.10;99.90;;;-144.05;67.39;125687.94;5082811;28;20028;-89
2022/08/23 01:30:41;;;;;;;5.88;3.40;;;17.10;99.90;;;-144.05;67.63;125687.94;5110582;28;20046;-86
2022/08/23 01:33:09;;;;;;;6.15;4.28;;;17.10;99.90;;;-144.05;67.90;125687.94;5092567;28;20036;-86
2022/08/23 01:35:39;;;;;;;6.28;3.97;;;17.00;99.90;;;-144.05;68.18;125687.94;5079852;28;20042;-85
2022/08/23 01:38:10;;;;;;;7.63;4.07;;;17.00;99.90;;;-144.05;68.81;125687.94;5079266;28;20119;-86
2022/08/23 01:40:40;;;;;;;6.00;3.63;;;16.90;99.90;;;-144.05;69.09;125687.94;5080313;28;20025;-88
2022/08/23 01:43:08;;;;;;;9.20;4.18;;;16.90;99.90;;;-144.05;69.47;125687.94;5080670;28;20023;-88
2022/08/23 01:45:37;;;;;;;6.70;4.53;;;16.90;99.90;;;-144.05;69.75;125687.94;5081038;28;20028;-86
2022/08/23 01:48:03;;;;;;;7.28;4.47;;;16.80;99.90;;;-144.05;70.04;125687.94;5080164;28;20391;-89
2022/08/23 01:50:31;;;;;;;7.28;3.85;;;16.80;99.90;;;-144.05;70.17;125687.94;5080399;28;20412;-89
2022/08/23 01:52:58;;;;;;;5.50;3.72;;;16.70;99.90;;;-144.05;70.66;125687.94;5080870;28;20034;-88
2022/08/23 01:55:25;;;;;;;6.63;4.07;;;16.70;99.90;;;-144.05;70.83;125687.94;5081070;28;20477;-85
2022/08/23 01:57:59;;;;;;;6.38;3.67;;;16.60;99.90;;;-144.05;71.00;125687.94;5080450;28;20059;-86
2022/08/23 02:00:34;;;;;;;5.03;3.95;;;16.50;99.90;;;-144.05;71.62;125687.94;5081116;28;20407;-87
2022/08/23 02:03:01;;;;;;;5.45;4.13;;;16.50;99.90;;;-144.05;71.97;125687.94;5099615;28;20054;-88
2022/08/23 02:05:29;;;;;;;7.00;4.55;;;16.40;99.90;;;-144.05;72.88;125687.94;5080951;28;20114;-87
2022/08/23 02:07:56;;;;;;;7.60;4.07;;;16.40;99.90;;;-144.05;73.05;125687.94;5080138;28;20036;-86
2022/08/23 02:10:22;;;;;;;5.22;4.47;;;16.40;99.90;;;-144.05;73.10;125687.94;5081364;28;20036;-89
2022/08/23 02:12:49;;;;;;;6.05;4.22;;;16.30;99.90;;;-144.05;73.14;125687.94;5098115;28;20034;-87
2022/08/23 02:15:17;;;;;;;9.00;5.10;;;16.30;99.90;;;-144.05;73.64;125687.94;5081878;28;20028;-86
2022/08/23 02:17:43;;;;;;;11.32;5.93;;;16.20;99.90;;;-144.05;74.04;125687.94;5082250;28;20028;-89
2022/08/23 02:20:11;;;;;;;6.45;4.30;;;16.30;99.90;;;-144.05;73.84;125687.94;5083717;28;20036;-85
2022/08/23 02:22:38;;;;;;;5.38;4.75;;;16.20;99.90;;;-144.05;73.75;125687.94;5082103;28;20028;-86
2022/08/23 02:25:06;;;;;;;7.53;4.47;;;16.10;99.90;;;-144.05;74.02;125687.94;5080310;28;20545;-85
2022/08/23 02:27:31;;;;;;;5.97;4.25;;;16.10;99.90;;;-144.05;74.29;125687.94;5079807;28;20032;-87
2022/08/23 02:29:58;;;;;;;6.13;4.07;;;16.00;99.90;;;-144.05;74.49;125687.94;5080979;28;20032;-86
2022/08/23 02:32:25;;;;;;;6.68;4.68;;;16.00;99.90;;;-144.05;75.13;125687.94;5098460;28;20040;-87
2022/08/23 02:34:52;;;;;;;5.22;4.45;;;16.00;99.90;;;-144.05;75.25;125687.94;5095988;28;20044;-88
2022/08/23 02:37:18;;;;;;;7.00;4.35;;;15.90;99.90;;;-144.05;75.45;125687.94;5078724;28;20028;-86
2022/08/23 02:39:44;;;;;;;7.07;4.85;;;15.90;99.90;;;-144.05;75.69;125687.94;5079065;28;20096;-87
2022/08/23 02:42:10;;;;;;;9.35;5.05;;;15.90;99.90;;;-144.05;76.30;125687.94;5079160;28;20053;-90
2022/08/23 02:44:37;;;;;;;7.43;5.45;;;15.90;99.90;;;-144.05;76.41;125687.94;5079006;28;20020;-88
2022/08/23 02:47:06;;;;;;;7.30;5.03;;;15.90;99.90;;;-144.05;76.20;125687.94;5079309;28;20464;-87
2022/08/23 02:49:32;;;;;;;11.90;5.07;;;15.90;99.90;;;-144.05;76.24;125687.94;5079202;28;20032;-88
2022/08/23 02:51:58;;;;;;;6.15;4.80;;;15.90;99.90;;;-144.05;76.00;125687.94;5078086;28;20034;-87
2022/08/23 02:54:24;;;;;;;9.07;4.82;;;15.90;99.90;;;-144.05;76.15;125687.94;5078599;28;20119;-88
2022/08/23 02:56:51;;;;;;;6.70;5.13;;;15.90;99.90;;;-144.05;76.15;125687.94;5078449;28;20393;-88
2022/08/23 02:59:18;;;;;;;6.93;4.40;;;15.90;99.90;;;-144.05;76.22;125687.94;5095408;28;20024;-88
2022/08/23 03:01:44;;;;;;;7.53;5.13;;;15.80;99.90;;;-144.05;76.25;125687.94;5078594;28;20035;-87
2022/08/23 03:04:10;;;;;;;8.50;4.60;;;15.80;99.90;;;-144.05;76.45;125687.94;5097366;28;20028;-89
2022/08/23 03:06:37;;;;;;;8.77;4.88;;;15.80;99.90;;;-144.05;76.50;125687.94;5078122;28;20083;-87
2022/08/23 03:09:06;;;;;;;4.88;4.43;;;15.70;99.90;;;-144.05;76.50;125687.94;5078739;28;20024;-89
2022/08/23 03:11:34;;;;;;;5.55;4.32;;;15.70;99.90;;;-144.05;76.54;125687.94;5096171;28;20494;-89
2022/08/23 03:14:00;;;;;;;6.30;4.68;;;15.70;99.90;;;-144.05;76.65;125687.94;5095907;28;20142;-89
2022/08/23 03:16:27;;;;;;;6.32;4.90;;;15.60;99.90;;;-144.05;76.97;125687.94;5078871;28;20024;-88
2022/08/23 03:18:54;;;;;;;7.18;5.50;;;15.60;99.90;;;-144.05;76.99;125687.94;5096061;28;20497;-85
2022/08/23 03:21:21;;;;;;;5.78;4.60;;;15.60;99.90;;;-144.05;77.14;125687.94;5082354;28;20506;-86
2022/08/23 03:23:48;;;;;;;6.82;5.03;;;15.50;99.90;;;-144.05;77.08;125687.94;5084284;28;20028;-88
2022/08/23 03:26:15;;;;;;;6.18;4.50;;;15.50;99.90;;;-144.05;77.15;125687.94;5077532;28;20126;-88
2022/08/23 03:28:44;;;;;;;5.88;5.20;;;15.50;99.90;;;-144.05;77.41;125687.94;5078225;28;20027;-88
2022/08/23 03:31:13;;;;;;;5.85;5.13;;;15.40;99.90;;;-144.05;77.44;125687.94;5077719;28;20031;-85
2022/08/23 03:33:40;;;;;;;5.10;4.60;;;15.40;99.90;;;-144.05;77.65;125687.94;5077321;28;20055;-87
2022/08/23 03:36:11;;;;;;;6.57;4.93;;;15.40;99.90;;;-144.05;77.95;125687.94;5078077;28;20050;-88
2022/08/23 03:38:39;;;;;;;8.38;5.28;;;15.40;99.90;;;-144.05;78.10;125687.94;5077757;28;20468;-88
2022/08/23 03:41:07;;;;;;;7.13;5.57;;;15.30;99.90;;;-144.05;78.23;125687.94;5094685;28;20047;-88
2022/08/23 03:43:34;;;;;;;7.90;5.88;;;15.30;99.90;;;-144.05;78.36;125687.94;5077631;28;20114;-89
2022/08/23 03:46:05;;;;;;;7.43;5.05;;;15.30;99.90;;;-144.05;78.11;125687.94;5079061;28;20491;-90
2022/08/23 03:48:31;;;;;;;6.25;5.30;;;15.40;99.90;;;-144.05;78.26;125687.94;5079838;28;20036;-90
2022/08/23 03:50:58;;;;;;;10.15;5.70;;;15.40;99.90;;;-144.05;78.31;125687.94;5097983;28;20020;-90
2022/08/23 03:53:24;;;;;;;7.68;5.25;;;15.30;99.90;;;-144.05;78.58;125687.94;5078628;28;20038;-88
2022/08/23 03:55:55;;;;;;;8.77;5.38;;;15.30;99.90;;;-144.05;78.56;125687.94;5079199;28;20024;-87
2022/08/23 03:58:24;;;;;;;6.25;5.47;;;15.20;99.90;;;-144.05;78.42;125687.94;5097541;28;20020;-88
2022/08/23 04:00:50;;;;;;;5.85;4.85;;;15.20;99.90;;;-144.05;78.45;125687.94;5078624;28;20040;-88
2022/08/23 04:03:16;;;;;;;8.02;5.38;;;15.10;99.90;;;-144.05;78.71;125687.94;5096464;28;20059;-90
2022/08/23 04:05:42;;;;;;;10.68;5.30;;;15.10;99.90;;;-144.05;78.57;125687.94;5078810;28;20024;-90
2022/08/23 04:08:10;;;;;;;7.93;5.22;;;15.10;99.90;;;-144.05;78.68;125687.94;5112526;28;20027;-88
2022/08/23 04:10:38;;;;;;;7.80;5.45;;;15.00;99.90;;;-144.05;78.80;125687.94;5114116;28;20028;-93
2022/08/23 04:13:07;;;;;;;10.00;5.50;;;15.00;99.90;;;-144.05;79.00;125687.94;5078894;28;20105;-90
2022/08/23 04:15:34;;;;;;;6.10;5.50;;;15.00;99.90;;;-144.05;79.42;125687.94;5079294;28;20028;-89
2022/08/23 04:18:00;;;;;;;6.40;4.78;;;15.00;99.90;;;-144.05;79.27;125687.94;5079830;28;20032;-90
2022/08/23 04:20:27;;;;;;;7.05;5.00;;;15.00;99.90;;;-144.05;79.17;125687.94;5098181;28;20035;-91
2022/08/23 04:33:27;;;;;;;7.18;5.30;;;14.80;99.90;;;-144.05;79.50;125687.94;5056152;28;20052;-89
2022/08/23 04:35:54;;;;;;;7.93;5.85;;;14.80;99.90;;;-144.05;79.70;125687.94;5025694;28;20072;-91
2022/08/23 04:38:20;;;;;;;6.57;5.40;;;14.90;99.90;;;-144.05;79.86;125687.94;5023710;28;20115;-89
2022/08/23 04:43:30;;;;;;;9.88;5.47;;;14.80;99.90;;;-144.05;79.95;125687.94;5063819;28;20055;-89
2022/08/23 04:46:04;;;;;;;6.32;5.05;;;14.80;99.90;;;-144.05;80.07;125687.94;5044694;28;20021;-91
2022/08/23 04:48:34;;;;;;;10.98;5.28;;;14.80;99.90;;;-144.05;80.48;125687.94;5043070;28;20032;-88
2022/08/23 04:51:02;;;;;;;6.13;5.22;;;14.80;99.90;;;-144.05;80.32;125687.94;5044115;28;20396;-88
2022/08/23 04:53:29;;;;;;;8.63;6.03;;;14.80;99.90;;;-144.05;80.39;125687.94;5049102;28;20013;-88
2022/08/23 04:55:55;;;;;;;7.55;6.13;;;14.80;99.90;;;-144.05;80.47;125687.94;5077767;28;20032;-86
2022/08/23 04:58:21;;;;;;;11.10;5.80;;;14.90;99.90;;;-144.05;80.66;125687.94;5062263;28;20049;-88
2022/08/23 05:00:56;;;;;;;10.35;6.63;;;15.00;99.90;;;-144.05;80.89;125687.94;5057952;28;20048;-88
2022/08/23 05:03:22;;;;;;;7.15;5.60;;;15.10;99.90;;;-144.05;80.62;125687.94;5061291;28;20071;-88
2022/08/23 05:05:48;;;;;;;11.45;5.97;;;15.20;99.90;;;-144.05;80.46;125687.94;5046762;28;20033;-87
2022/08/23 05:08:14;;;;;;;7.93;5.90;;;15.20;99.90;;;-144.05;80.39;125687.94;5052001;28;20033;-87
2022/08/23 05:10:40;;;;;;;10.73;6.32;;;15.20;99.90;;;-144.05;80.34;125687.94;5068993;28;20480;-89
2022/08/23 05:13:06;;;;;;;8.90;5.68;;;15.20;99.90;;;-144.05;80.25;125687.94;5063047;28;20060;-89
2022/08/23 05:15:32;;;;;;;7.55;5.70;;;15.30;99.90;;;-144.05;80.30;125687.94;5043122;28;20029;-91
2022/08/23 05:17:57;;;;;;;12.02;6.20;;;15.30;99.90;;;-144.05;80.25;125687.94;5041220;28;20025;-92
2022/08/23 05:20:24;;;;;;;12.65;6.57;;;15.30;99.90;;;-144.05;80.13;125687.94;5042454;28;20071;-90
2022/08/23 05:22:50;;;;;;;8.13;5.93;;;15.40;99.90;;;-144.05;80.00;125687.94;5042715;28;20035;-92
2022/08/23 05:25:16;;;;;;;7.18;5.78;;;15.50;99.90;;;-144.05;79.74;125687.94;5043014;28;20029;-89
2022/08/23 05:27:42;;;;;;;8.20;5.45;;;15.60;99.90;;;-144.05;79.33;125687.94;5041883;28;20029;-89
2022/08/23 05:30:10;;;;;;;9.20;5.25;;;15.70;99.90;;;-144.05;79.17;125687.94;5059627;28;20025;-88
2022/08/23 05:32:38;;;;;;;11.35;5.60;;;15.80;99.90;;;-144.05;78.77;125687.94;5060463;28;20123;-92
2022/08/23 05:35:05;;;;;;;10.93;6.25;;;16.00;99.90;;;-144.05;78.27;125687.94;5060314;28;20033;-90
2022/08/23 05:37:32;;;;;;;10.45;6.53;;;16.10;99.90;;;-144.05;77.96;125687.94;5041897;28;20037;-89
2022/08/23 05:39:58;;;;;;;9.70;6.70;;;16.30;99.90;;;-144.05;77.93;125687.94;5058281;28;20021;-89
2022/08/23 05:42:26;;;;;;;10.23;5.82;;;16.50;99.90;;;-144.05;78.01;125687.94;5042228;28;20110;-91
2022/08/23 05:44:52;;;;;;;13.20;6.07;;;16.60;99.90;;;-144.05;77.93;125687.94;5040225;28;20484;-92
2022/08/23 05:47:19;;;;;;;12.55;5.97;;;16.80;99.90;;;-144.05;77.90;125687.94;5039840;28;20040;-89
2022/08/23 05:49:44;;;;;;;8.40;5.75;;;17.00;99.90;;;-144.05;77.75;125687.94;5039677;28;20033;-89
2022/08/23 05:52:13;;;;;;;9.85;5.25;;;17.20;99.90;;;-144.05;77.40;125687.94;5040533;28;20056;-89
2022/08/23 05:54:40;;;;;;;10.40;5.72;;;17.40;99.90;;;-144.05;76.38;125687.94;5057949;28;20098;-88
2022/08/23 05:57:06;;;;;;;9.65;5.82;;;17.60;99.90;;;-144.05;75.37;125687.94;5059850;28;20053;-89
2022/08/23 05:59:33;;;;;;;12.88;5.63;;;17.80;99.90;;;-144.05;74.41;125687.94;5048947;28;20029;-88
2022/08/23 06:01:59;;;;;;;10.38;5.95;;;18.10;99.90;;;-144.05;72.96;125687.94;5053094;28;20071;-90
2022/08/23 06:04:25;;;;;;;11.93;6.13;;;18.30;99.90;;;-144.05;71.25;125687.94;5039884;28;20029;-91
2022/08/23 06:06:51;;;;;;;13.00;5.82;;;18.60;99.90;;;-144.05;69.50;125687.94;5057156;28;20365;-89
2022/08/23 06:09:18;;;;;;;9.73;5.57;;;18.90;99.90;;;-144.05;68.00;125687.94;5039420;28;20025;-89
2022/08/23 06:11:47;;;;;;;10.90;5.85;;;19.20;99.90;;;-144.05;66.24;125687.94;5058562;28;20614;-87
2022/08/23 06:14:14;;;;;;;11.93;5.55;;;19.50;99.90;;;-144.05;64.60;125687.94;5040330;28;20033;-89
2022/08/23 06:16:47;;;;;;;10.40;5.07;;;19.80;99.90;;;-144.05;63.40;125687.94;5023259;28;20036;-89
2022/08/23 06:19:15;;;;;;;9.27;4.82;;;20.20;99.90;;;-144.05;62.23;125687.94;5039960;28;20029;-90
2022/08/23 06:21:42;;;;;;;11.65;5.38;;;20.60;99.90;;;-144.05;61.25;125687.94;5039218;28;20060;-91
2022/08/23 06:24:09;;;;;;;12.88;4.75;;;20.90;99.90;;;-144.05;60.50;125687.94;5038881;28;20458;-88
2022/08/23 06:26:43;;;;;;;11.50;5.07;;;21.20;99.90;;;-144.05;59.79;125687.94;5039327;28;20036;-88
2022/08/23 06:29:15;;;;;;;13.45;5.88;;;21.30;99.90;;;-144.05;59.45;125687.94;5038716;28;20396;-91
2022/08/23 06:31:47;;;;;;;10.40;4.97;;;21.50;99.90;;;-144.05;58.97;125687.94;5039378;28;20061;-90
2022/08/23 06:34:34;;;;;;;13.50;5.50;;;21.70;99.90;;;-144.05;58.44;125687.94;5057702;28;20032;-89
2022/08/23 06:37:07;;;;;;;15.30;5.75;;;21.80;99.90;;;-144.05;57.79;125687.94;5040031;28;20036;-91
2022/08/23 06:39:35;;;;;;;17.25;5.32;;;22.00;99.90;;;-144.05;57.31;125687.94;5056920;28;20025;-91
2022/08/23 06:42:15;;;;;;;13.38;5.40;;;22.10;99.90;;;-144.05;55.53;125687.94;5041391;28;20025;-87
2022/08/23 06:44:41;;;;;;;14.93;4.38;;;22.30;99.90;;;-144.05;54.25;125687.94;5040720;28;20078;-88
2022/08/23 06:47:08;;;;;;;10.27;3.97;;;22.60;99.90;;;-144.05;53.40;125687.94;5041361;28;20056;-88
2022/08/23 06:49:34;;;;;;;14.35;3.78;;;22.90;99.90;;;-144.05;50.72;125687.94;5041559;28;20036;-89
2022/08/23 06:52:05;;;;;;;8.95;3.95;;;23.20;99.90;;;-144.05;50.41;125687.94;5039854;28;20067;-90
2022/08/23 06:54:35;;;;;;;11.40;3.53;;;23.50;99.90;;;-144.05;47.34;125687.94;5057582;28;20040;-92
2022/08/23 06:57:02;;;;;;;4.10;3.08;;;23.70;99.90;;;-144.05;44.91;125687.94;5039001;28;20485;-91
2022/08/23 06:59:30;;;;;;;5.80;2.70;;;24.10;99.90;;;-144.05;44.24;125687.94;5040022;28;20056;-89
2022/08/23 07:02:02;;;;;;;8.00;2.78;;;24.30;99.90;;;-144.05;44.71;125687.94;5038712;28;20048;-90
2022/08/23 07:04:34;;;;;;;8.00;2.42;;;24.50;99.90;;;-144.05;43.04;125687.94;5039123;28;20025;-91
2022/08/23 07:07:03;;;;;;;4.15;2.55;;;24.80;99.90;;;-144.05;41.47;125687.94;5057273;28;20055;-91
2022/08/23 07:09:31;;;;;;;4.68;2.60;;;25.00;99.90;;;-144.05;40.30;125687.94;5056676;28;20484;-89
2022/08/23 07:11:59;;;;;;;5.55;2.10;;;25.30;99.90;;;-144.05;39.44;125687.94;5055666;28;20074;-90
2022/08/23 07:14:27;;;;;;;8.68;2.58;;;25.30;99.90;;;-144.05;38.67;125687.94;5039481;28;20037;-90
2022/08/23 07:17:00;;;;;;;4.38;2.60;;;25.40;99.90;;;-144.05;38.66;125687.94;5039631;28;20036;-90
2022/08/23 07:19:31;;;;;;;7.63;2.30;;;25.60;99.90;;;-144.05;37.30;125687.94;5039393;28;20066;-88
2022/08/23 07:22:00;;;;;;;5.47;2.20;;;25.80;99.90;;;-144.05;36.84;125687.94;5039702;28;20021;-90
2022/08/23 07:24:29;;;;;;;5.28;2.50;;;26.00;99.90;;;-144.05;37.01;125687.94;5038802;28;20074;-88
2022/08/23 07:26:55;;;;;;;7.78;1.95;;;25.90;99.90;;;-144.05;36.89;125687.94;5038642;28;20032;-90
2022/08/23 07:29:21;;;;;;;4.38;2.00;;;26.10;99.90;;;-144.05;36.16;125687.94;5056881;28;20029;-90
2022/08/23 07:31:54;;;;;;;6.65;2.15;;;26.40;99.20;;;-144.05;36.01;125687.94;5039677;28;20040;-89
2022/08/23 07:34:23;;;;;;;5.60;2.05;;;26.60;99.20;;;-144.05;35.21;125687.94;5039777;28;20370;-91
2022/08/23 07:36:53;;;;;;;5.57;2.40;;;26.80;97.30;;;-144.05;35.76;125687.94;5040410;28;20060;-89
2022/08/23 07:39:22;;;;;;;7.22;2.30;;;26.70;97.20;;;-144.05;35.48;125687.94;5040357;28;20021;-90
2022/08/23 07:41:51;;;;;;;4.80;2.55;;;26.70;96.10;;;-144.05;35.50;125687.94;5039937;28;20032;-90
2022/08/23 07:44:17;;;;;;;5.40;1.88;;;26.90;97.10;;;-144.05;34.30;125687.94;5039935;28;20075;-88
2022/08/23 07:46:45;;;;;;;4.28;1.90;;;27.20;94.50;;;-144.05;34.38;125687.94;5056103;28;20025;-89
2022/08/23 07:49:14;;;;;;;7.05;2.13;;;27.30;94.70;;;-144.05;34.70;125687.94;5056151;28;20029;-90
2022/08/23 07:51:46;;;;;;;4.82;2.08;;;27.50;95.50;;;-144.05;34.09;125687.94;5039385;28;20074;-88
2022/08/23 07:54:14;;;;;;;4.43;2.33;;;27.70;94.40;;;-144.05;34.13;125687.94;5040263;28;20021;-89
2022/08/23 07:56:40;;;;;;;4.10;2.00;;;27.70;94.20;;;-144.05;34.67;125687.94;5040309;28;20062;-89
2022/08/23 07:59:09;;;;;;;6.18;1.80;;;28.00;95.10;;;-144.05;33.28;125687.94;5040323;28;20083;-88
2022/08/23 08:01:36;;;;;;;5.78;1.80;;;28.10;92.30;;;-144.05;32.54;125687.94;5041752;28;20028;-86
2022/08/23 08:04:05;;;;;;;4.25;2.28;;;28.20;91.30;;;-144.05;32.32;125687.94;5059208;28;20040;-89
2022/08/23 08:06:39;;;;;;;4.28;1.80;;;28.00;88.90;;;-144.05;32.45;125687.94;5057476;28;20029;-89
2022/08/23 08:09:08;;;;;;;3.35;2.03;;;28.00;90.10;;;-144.05;32.43;125687.94;5067534;28;20059;-88
2022/08/23 08:11:36;;;;;;;7.97;2.28;;;27.90;89.80;;;-144.05;32.37;125687.94;5055055;28;20052;-89
2022/08/23 08:14:07;;;;;;;5.45;2.10;;;28.10;88.60;;;-144.05;31.74;125687.94;5041149;28;20033;-89
2022/08/23 08:16:44;;;;;;;3.90;2.13;;;28.00;85.10;;;-144.05;31.44;125687.94;5041694;28;20029;-89
2022/08/23 08:19:15;;;;;;;4.60;2.05;;;28.20;84.90;;;-144.05;31.21;125687.94;5040788;28;20029;-90
2022/08/23 08:21:44;;;;;;;5.80;2.03;;;28.40;84.30;;;-144.05;31.15;125687.94;5057635;28;20021;-90
2022/08/23 08:24:15;;;;;;;5.82;2.08;;;28.40;82.60;;;-144.05;31.97;125687.94;5039388;28;20025;-91
2022/08/23 08:26:43;;;;;;;4.05;2.33;;;28.20;83.20;;;-144.05;31.69;125687.94;5038143;28;20504;-90
2022/08/23 08:29:13;;;;;;;4.45;2.10;;;28.30;82.10;;;-144.05;31.39;125687.94;5038509;28;20040;-88
2022/08/23 08:31:43;;;;;;;7.57;2.30;;;28.50;82.90;;;-144.05;30.35;125687.94;5038989;28;20101;-92
2022/08/23 08:34:10;;;;;;;8.15;2.55;;;28.60;79.10;;;-144.05;31.33;125687.94;5039142;28;20514;-90
2022/08/23 08:36:50;;;;;;;4.88;1.85;;;28.60;80.80;;;-144.05;31.10;125687.94;5057724;28;20033;-89
2022/08/23 08:39:31;;;;;;;2.85;2.15;;;28.60;78.90;;;-144.05;31.31;125687.94;5056936;28;20348;-91
2022/08/23 08:42:50;;;;;;;5.88;2.28;;;28.70;79.90;;;-144.05;31.43;125687.94;5038986;28;20029;-88
2022/08/23 08:45:37;;;;;;;2.65;1.90;;;29.00;78.60;;;-144.05;30.56;125687.94;4952398;28;20035;-88
2022/08/23 08:48:16;;;;;;;5.57;2.40;;;29.20;79.30;;;-144.05;29.92;125687.94;5039734;28;20021;-90
2022/08/23 08:50:53;;;;;;;4.20;1.60;;;29.60;78.40;;;-144.05;29.93;125687.94;5039749;28;20082;-90
2022/08/23 08:53:46;;;;;;;4.38;2.00;;;29.80;76.50;;;-144.05;29.60;125687.94;5040024;28;20139;-88
2022/08/23 08:56:34;;;;;;;6.85;2.60;;;30.00;76.30;;;-144.05;29.73;125687.94;5040392;28;20101;-89
2022/08/23 08:59:14;;;;;;;4.72;2.08;;;29.90;73.20;;;-144.05;29.70;125687.94;5040626;28;20035;-90
2022/08/23 09:01:41;;;;;;;3.55;2.03;;;29.80;72.60;;;-144.05;28.97;125687.94;5025651;28;20037;-90
2022/08/23 09:04:09;;;;;;;5.07;2.30;;;29.90;71.40;;;-144.05;29.08;125687.94;5039366;28;20029;-90
2022/08/23 09:07:23;;;;;;;3.55;2.15;;;30.10;71.50;;;-144.05;28.70;125687.94;5039421;28;20033;-89
2022/08/23 09:10:46;;;;;;;5.18;2.20;;;30.20;70.00;;;-144.05;28.67;125687.94;5039255;28;20025;-90
2022/08/23 09:14:09;;;;;;;3.65;2.13;;;30.20;70.10;;;-144.05;28.97;125687.94;5040270;28;20029;-89
2022/08/23 09:17:03;;;;;;;5.78;2.35;;;30.50;71.10;;;-144.05;28.73;125687.94;4942480;29;20038;-87
2022/08/23 09:19:37;;;;;;;2.65;1.80;;;30.50;69.10;;;-144.05;28.66;125687.94;5038791;28;20051;-89
2022/08/23 09:22:16;;;;;;;6.03;2.20;;;30.60;69.20;;;-144.05;28.58;125687.94;5039754;28;20036;-89
2022/08/23 09:24:41;;;;;;;5.47;2.03;;;30.50;67.90;;;-144.05;28.12;125687.94;5039845;28;20025;-90
2022/08/23 09:27:10;;;;;;;4.53;1.88;;;30.60;66.20;;;-144.05;28.83;125687.94;5043160;28;20097;-91
2022/08/23 09:29:52;;;;;;;3.35;1.77;;;30.60;67.70;;;-144.05;28.63;125687.94;5043699;28;20056;-90
2022/08/23 09:32:40;;;;;;;5.18;2.28;;;30.70;68.70;;;-144.05;28.32;125687.94;5043482;28;20041;-89
2022/08/23 09:35:19;;;;;;;4.43;2.55;;;31.00;67.80;;;-144.05;27.68;125687.94;5044566;28;20391;-89
2022/08/23 09:38:19;;;;;;;4.22;2.17;;;31.10;64.70;;;-144.05;27.96;125687.94;5043066;28;20052;-89
2022/08/23 09:40:49;;;;;;;3.88;1.77;;;31.10;65.90;;;-144.05;28.57;125687.94;5062400;28;20159;-89
2022/08/23 09:43:24;;;;;;;5.22;2.25;;;31.30;67.20;;;-144.05;28.40;125687.94;5043114;28;20431;-89
2022/08/23 09:45:53;;;;;;;;;;;31.40;67.80;;;-144.05;27.72;125687.94;5045033;28;20385;-91
2022/08/23 09:48:45;;;;;;;3.92;1.88;;;31.50;65.70;;;-144.05;27.49;125687.94;5045533;28;19909;-90
2022/08/23 09:51:40;;;;;;;4.20;2.25;;;31.50;63.10;;;-144.05;27.65;125687.94;5044079;28;20100;-88
2022/08/23 09:54:24;;;;;;;5.30;2.30;;;31.50;61.40;;;-144.05;27.83;125687.94;5054176;28;20035;-89
2022/08/23 09:57:01;;;;;;;4.78;2.10;;;31.60;64.90;;;-144.05;27.69;125687.94;5052682;28;20027;-89
2022/08/23 09:59:46;;;;;;;4.43;2.47;;;31.40;63.60;;;-144.05;27.62;125687.94;5063485;28;20017;-89
2022/08/23 10:02:35;;;;;;;3.85;2.10;;;31.60;63.70;;;-144.05;27.28;125687.94;5044127;28;20029;-90
2022/08/23 10:05:35;;;;;;;4.30;1.75;;;31.40;62.40;;;-144.05;27.44;125687.94;5035795;28;20033;-91
2022/08/23 10:08:06;;;;;;;3.60;1.95;;;31.40;61.90;;;-144.05;27.49;125687.94;5043415;28;20033;-90
2022/08/23 10:10:47;;;;;;;5.25;2.55;;;31.60;62.60;;;-144.05;27.05;125687.94;5044824;28;20384;-90
2022/08/23 10:13:14;;;;;;;4.35;2.60;;;31.70;60.90;;;-144.05;27.22;125687.94;5054949;28;20111;-90
2022/08/23 10:16:20;;;;;;;3.80;2.17;;;31.60;61.70;;;-144.05;27.06;125687.94;5058394;28;20067;-90
2022/08/23 10:19:09;;;;;;;4.68;2.05;;;31.60;61.90;;;-144.05;27.24;125687.94;5057304;28;20056;-90
2022/08/23 10:22:08;;;;;;;5.45;2.17;;;31.60;61.10;;;-144.05;27.34;125687.94;5042831;28;20116;-88
2022/08/23 10:24:50;;;;;;;2.92;1.92;;;31.80;61.10;;;-144.05;27.04;125687.94;5126498;22;20097;-88
2022/08/23 10:31:18;;;;;;;3.55;2.03;;;32.40;59.20;;;-144.05;26.86;125687.94;5082382;28;20513;-86
2022/08/23 10:34:09;;;;;;;4.80;2.30;;;32.50;59.50;;;-144.05;27.00;125687.94;5063883;28;20031;-87
2022/08/23 10:37:28;;;;;;;3.47;2.17;;;32.40;60.50;;;-144.05;26.64;125687.94;5081057;28;20020;-83
2022/08/23 10:40:14;;;;;;;8.20;2.20;;;32.30;59.00;;;-144.05;26.99;125687.94;5052586;28;20044;-85
2022/08/23 10:42:59;;;;;;;5.15;2.20;;;32.20;59.30;;;-144.05;27.41;125687.94;5056517;28;20464;-86
2022/08/23 10:45:40;;;;;;;6.13;2.17;;;32.10;60.30;;;-144.05;27.37;125687.94;5057133;28;20123;-87